Rochester, Washington
Current Conditions -  °F | °C
As of 5:35 PM on Saturday 25 Oct 2014 (Local Time) from KCLS Reporting Station
Haze Haze  
Wind Chill: 59°   Ceiling: 2700
Heat Index: 59°   Visibility: 5mi
Dew Point: 55°   Wind: 17mph
Humidity: 88%   Direction: 180°S
Pressure: 29.31"   Gusts: 26mph
Location:  46.82°N, 123.1°W
Report Text: KCLS 260035Z AUTO 18015G23KT 5SM BR FEW022 BKN027 OVC042 15/13 A2931 RMK AO2
Loading
Personal Weather Stations






























Interactive Weather Map
Tropical Storm Tracking
New forecast layout! Learn more

10-Day Weather Forecast

Advertisements
Track Severe Weather on mobile